createdAt,value
2023-02-11T00:01:26.167Z,7.18
2023-02-11T00:03:54.582Z,6.70
2023-02-11T00:06:23.246Z,6.65
2023-02-11T00:08:51.668Z,6.57
2023-02-11T00:11:21.982Z,7.70
2023-02-11T00:13:50.251Z,9.65
2023-02-11T00:16:20.972Z,8.50
2023-02-11T00:18:53.192Z,7.10
2023-02-11T00:21:25.859Z,7.30
2023-02-11T00:23:55.021Z,8.07
2023-02-11T00:26:25.450Z,7.70
2023-02-11T00:28:54.781Z,9.57
2023-02-11T00:31:24.460Z,9.60
2023-02-11T00:33:55.077Z,8.43
2023-02-11T00:36:26.417Z,9.25
2023-02-11T00:38:56.346Z,9.63
2023-02-11T00:41:25.217Z,9.20
2023-02-11T00:43:54.024Z,10.10
2023-02-11T00:46:22.490Z,10.50
2023-02-11T00:48:51.935Z,11.90
2023-02-11T00:51:22.050Z,10.50
2023-02-11T00:53:50.548Z,10.43
2023-02-11T00:56:18.913Z,11.15
2023-02-11T00:58:47.048Z,9.82
2023-02-11T01:01:16.272Z,10.63
2023-02-11T01:03:44.643Z,9.43
2023-02-11T01:06:13.353Z,9.57
2023-02-11T01:08:43.199Z,8.93
2023-02-11T01:11:16.374Z,8.73
2023-02-11T01:13:46.184Z,10.20
2023-02-11T01:16:14.973Z,8.15
2023-02-11T01:18:44.487Z,9.30
2023-02-11T01:21:13.111Z,9.32
2023-02-11T01:23:43.174Z,8.23
2023-02-11T01:26:11.662Z,10.25
2023-02-11T01:28:40.356Z,10.20
2023-02-11T01:31:08.842Z,10.63
2023-02-11T01:33:37.637Z,9.20
2023-02-11T01:36:07.222Z,10.50
2023-02-11T01:38:36.358Z,9.80
2023-02-11T01:41:08.396Z,9.75
2023-02-11T01:43:39.723Z,11.88
2023-02-11T01:46:29.542Z,9.80
2023-02-11T01:49:01.055Z,10.15
2023-02-11T01:51:33.890Z,10.18
2023-02-11T01:54:20.423Z,9.70
2023-02-11T01:57:10.934Z,9.05
2023-02-11T01:59:42.731Z,8.48
2023-02-11T02:02:15.147Z,9.80
2023-02-11T02:04:50.204Z,8.82
2023-02-11T02:07:24.430Z,10.45
2023-02-11T02:10:00.240Z,11.48
2023-02-11T02:12:29.881Z,9.85
2023-02-11T02:15:23.514Z,9.68
2023-02-11T02:18:00.848Z,8.25
2023-02-11T02:21:04.810Z,9.15
2023-02-11T02:23:42.518Z,9.15
2023-02-11T02:26:36.403Z,9.95
2023-02-11T02:29:39.457Z,8.60
2023-02-11T02:32:31.376Z,10.25
2023-02-11T02:35:09.751Z,7.25
2023-02-11T02:37:41.272Z,8.02
2023-02-11T02:40:15.382Z,7.75
2023-02-11T02:42:45.273Z,8.30
2023-02-11T02:45:15.148Z,8.30
2023-02-11T02:47:44.815Z,7.55
2023-02-11T02:50:16.604Z,10.15
2023-02-11T02:52:57.479Z,8.30
2023-02-11T02:55:41.226Z,7.68
2023-02-11T02:58:49.736Z,8.70
2023-02-11T03:01:29.654Z,8.75
2023-02-11T03:04:07.202Z,7.95
2023-02-11T03:06:47.705Z,9.43
2023-02-11T03:09:20.395Z,9.70
2023-02-11T03:11:48.638Z,9.13
2023-02-11T03:14:19.888Z,7.63
2023-02-11T03:16:50.334Z,9.15
2023-02-11T03:19:23.941Z,7.88
2023-02-11T03:21:54.392Z,8.50
2023-02-11T03:24:29.624Z,8.48
2023-02-11T03:27:00.962Z,7.80
2023-02-11T03:29:37.320Z,7.53
2023-02-11T03:32:16.266Z,6.70
2023-02-11T03:34:52.509Z,7.47
2023-02-11T03:37:25.545Z,6.95
2023-02-11T03:39:58.698Z,6.53
2023-02-11T03:42:33.904Z,7.60
2023-02-11T03:45:08.084Z,7.22
2023-02-11T03:47:40.838Z,6.32
2023-02-11T03:50:14.096Z,7.03
2023-02-11T03:52:42.631Z,8.15
2023-02-11T03:55:16.689Z,6.80
2023-02-11T03:57:45.091Z,7.88
2023-02-11T04:00:14.244Z,6.70
2023-02-11T04:02:43.636Z,7.70
2023-02-11T04:05:16.515Z,7.40
2023-02-11T04:07:44.931Z,7.55
2023-02-11T04:10:13.652Z,7.15
2023-02-11T04:12:42.040Z,7.50
2023-02-11T04:15:10.951Z,6.55
2023-02-11T04:17:39.204Z,7.22
2023-02-11T04:20:07.819Z,6.45
2023-02-11T04:22:37.569Z,6.85
2023-02-11T04:25:06.253Z,11.15
2023-02-11T04:27:34.837Z,13.90
2023-02-11T04:30:03.522Z,16.30
2023-02-11T04:32:32.030Z,10.00
2023-02-11T04:35:00.314Z,8.55
2023-02-11T04:37:28.718Z,8.35
2023-02-11T04:39:58.524Z,10.40
2023-02-11T04:42:26.816Z,11.27
2023-02-11T04:44:55.252Z,13.57
2023-02-11T04:47:23.352Z,11.70
2023-02-11T04:49:51.600Z,10.00
2023-02-11T04:52:19.915Z,9.70
2023-02-11T04:54:48.302Z,8.73
2023-02-11T04:57:18.033Z,8.88
2023-02-11T04:59:46.308Z,8.93
2023-02-11T05:02:14.773Z,8.05
2023-02-11T05:04:43.432Z,9.52
2023-02-11T05:07:11.784Z,6.60
2023-02-11T05:09:40.349Z,7.57
2023-02-11T05:12:09.074Z,7.40
2023-02-11T05:14:38.787Z,8.15
2023-02-11T05:17:07.076Z,7.85
2023-02-11T05:19:35.424Z,8.75
2023-02-11T05:22:03.938Z,8.40
2023-02-11T05:24:33.177Z,7.20
2023-02-11T05:27:01.883Z,6.60
2023-02-11T05:29:30.374Z,7.00
2023-02-11T05:32:00.284Z,6.28
2023-02-11T05:34:28.560Z,6.43
2023-02-11T05:36:57.082Z,6.38
2023-02-11T05:39:25.573Z,7.70
2023-02-11T05:41:53.831Z,6.25
2023-02-11T05:44:21.991Z,6.50
2023-02-11T05:46:51.294Z,6.13
2023-02-11T05:49:20.854Z,6.82
2023-02-11T05:51:49.078Z,7.13
2023-02-11T05:54:17.651Z,8.35
2023-02-11T05:56:46.106Z,8.52
2023-02-11T05:59:15.559Z,7.68
2023-02-11T06:01:44.234Z,9.15
2023-02-11T06:04:12.755Z,9.73
2023-02-11T06:06:42.904Z,9.80
2023-02-11T06:09:11.972Z,9.90
2023-02-11T06:11:41.307Z,8.37
2023-02-11T06:14:10.070Z,7.90
2023-02-11T06:16:38.692Z,9.13
2023-02-11T06:19:07.076Z,7.83
2023-02-11T06:21:43.277Z,7.47
2023-02-11T06:24:14.206Z,7.77
2023-02-11T06:26:42.415Z,8.90
2023-02-11T06:29:10.955Z,8.77
2023-02-11T06:31:39.953Z,9.07
2023-02-11T06:34:08.775Z,9.60
2023-02-11T06:36:37.437Z,11.98
2023-02-11T06:39:06.536Z,11.82
2023-02-11T06:41:36.340Z,13.18
2023-02-11T06:44:04.709Z,12.15
2023-02-11T06:46:33.230Z,11.23
2023-02-11T06:49:01.605Z,10.80
2023-02-11T06:51:29.960Z,10.95
2023-02-11T06:53:58.168Z,11.05
2023-02-11T06:56:31.730Z,9.88
2023-02-11T06:59:01.875Z,10.23
2023-02-11T07:01:30.957Z,9.82
2023-02-11T07:03:59.493Z,10.68
2023-02-11T07:06:29.322Z,11.52
2023-02-11T07:08:57.874Z,10.88
2023-02-11T07:11:28.575Z,10.75
2023-02-11T07:14:01.230Z,9.68
2023-02-11T07:16:31.462Z,10.60
2023-02-11T07:19:00.133Z,9.20
2023-02-11T07:21:28.670Z,11.40
2023-02-11T07:23:57.084Z,11.77
2023-02-11T07:26:25.882Z,10.48
2023-02-11T07:28:55.358Z,10.82
2023-02-11T07:31:25.408Z,11.30
2023-02-11T07:33:56.717Z,11.18
2023-02-11T07:36:25.308Z,12.68
2023-02-11T07:38:54.200Z,12.98
2023-02-11T07:41:25.225Z,11.98
2023-02-11T07:43:54.473Z,13.15
2023-02-11T07:46:25.213Z,13.23
2023-02-11T07:48:55.355Z,13.40
2023-02-11T07:51:25.519Z,11.95
2023-02-11T07:53:55.440Z,12.30
2023-02-11T07:56:24.295Z,12.68
2023-02-11T07:58:52.991Z,12.45
2023-02-11T08:01:25.367Z,13.80
2023-02-11T08:03:55.865Z,13.57
2023-02-11T08:06:25.552Z,14.47
2023-02-11T08:08:53.861Z,15.03
2023-02-11T08:11:23.324Z,14.60
2023-02-11T08:13:51.712Z,14.07
2023-02-11T08:16:22.435Z,15.40
2023-02-11T08:18:51.409Z,16.27
2023-02-11T08:21:22.093Z,16.97
2023-02-11T08:23:50.944Z,16.00
2023-02-11T08:26:21.571Z,16.73
2023-02-11T08:28:51.550Z,16.50
2023-02-11T08:31:21.712Z,15.80
2023-02-11T08:33:50.648Z,16.50
2023-02-11T08:36:22.091Z,16.17
2023-02-11T08:38:50.259Z,15.20
2023-02-11T08:48:52.243Z,13.30
2023-02-11T08:51:24.504Z,13.20
2023-02-11T08:53:53.177Z,12.63
2023-02-11T08:56:23.325Z,13.73
2023-02-11T08:58:52.100Z,12.10
2023-02-11T09:01:24.096Z,11.70
2023-02-11T09:03:52.325Z,13.20
2023-02-11T09:06:23.025Z,12.37
2023-02-11T09:08:54.180Z,13.90
2023-02-11T09:11:27.474Z,14.53
2023-02-11T09:13:55.757Z,15.57
2023-02-11T09:16:26.144Z,13.67
2023-02-11T09:18:55.652Z,13.87
2023-02-11T09:21:25.655Z,13.67
2023-02-11T09:23:54.183Z,13.90
2023-02-11T09:26:24.417Z,14.10
2023-02-11T09:28:52.985Z,13.20
2023-02-11T09:31:23.685Z,13.63
2023-02-11T09:33:56.550Z,12.83
2023-02-11T09:36:28.814Z,13.60
2023-02-11T09:38:57.269Z,13.10
2023-02-11T09:41:42.905Z,13.77
2023-02-11T09:44:19.774Z,12.60
2023-02-11T09:46:55.020Z,13.53
2023-02-11T09:49:30.568Z,12.07
2023-02-11T09:52:06.380Z,12.00
2023-02-11T09:54:38.926Z,12.30
2023-02-11T09:57:26.490Z,12.87
2023-02-11T09:59:57.291Z,12.60
2023-02-11T10:02:32.072Z,11.80
2023-02-11T10:05:46.834Z,12.10
2023-02-11T10:08:28.720Z,11.40
2023-02-11T10:11:04.565Z,12.10
2023-02-11T10:13:49.007Z,11.07
2023-02-11T10:16:31.363Z,11.60
2023-02-11T10:19:30.765Z,11.43
2023-02-11T10:22:09.347Z,10.70
2023-02-11T10:24:40.402Z,12.33
2023-02-11T10:27:19.430Z,11.20
2023-02-11T10:29:53.749Z,11.77
2023-02-11T10:32:37.719Z,11.13
2023-02-11T10:35:18.539Z,11.40
2023-02-11T10:37:47.100Z,11.33
2023-02-11T10:40:19.557Z,11.30
2023-02-11T10:42:55.811Z,11.27
2023-02-11T10:45:30.110Z,11.77
2023-02-11T10:48:02.285Z,10.90
2023-02-11T10:50:33.679Z,10.77
2023-02-11T10:53:14.352Z,11.87
2023-02-11T10:55:52.966Z,12.50
2023-02-11T10:58:27.945Z,11.43
2023-02-11T11:00:58.023Z,12.33
2023-02-11T11:03:30.718Z,11.43
2023-02-11T11:06:01.625Z,10.30
2023-02-11T11:08:41.996Z,10.87
2023-02-11T11:11:13.467Z,11.00
2023-02-11T11:13:43.466Z,11.73
2023-02-11T11:16:19.786Z,12.07
2023-02-11T11:18:49.741Z,11.50
2023-02-11T11:21:21.848Z,10.50
2023-02-11T11:23:54.081Z,11.83
2023-02-11T11:26:25.529Z,11.10
2023-02-11T11:29:00.095Z,12.67
2023-02-11T11:31:32.268Z,11.10
2023-02-11T11:34:02.372Z,10.60
2023-02-11T11:36:37.272Z,10.60
2023-02-11T11:39:23.177Z,11.30
2023-02-11T11:41:55.896Z,10.87
2023-02-11T11:44:32.741Z,12.23
2023-02-11T11:47:23.274Z,9.93
2023-02-11T11:50:07.054Z,11.53
2023-02-11T11:52:41.050Z,10.10
2023-02-11T11:55:18.325Z,8.67
2023-02-11T11:57:51.226Z,9.50
2023-02-11T12:00:22.284Z,11.30
2023-02-11T12:03:26.073Z,10.60
2023-02-11T12:06:09.269Z,11.10
2023-02-11T12:08:48.177Z,14.07
2023-02-11T12:11:27.465Z,10.90
2023-02-11T12:14:13.407Z,10.03
2023-02-11T12:16:52.815Z,10.67
2023-02-11T12:19:48.006Z,10.60
2023-02-11T12:22:28.462Z,10.47
2023-02-11T12:25:06.834Z,11.03
2023-02-11T12:27:47.596Z,10.90
2023-02-11T12:30:43.134Z,11.03
2023-02-11T12:33:24.696Z,12.00
2023-02-11T12:36:01.104Z,10.10
2023-02-11T12:38:54.780Z,11.97
2023-02-11T12:42:00.397Z,10.20
2023-02-11T12:44:40.719Z,9.47
2023-02-11T12:47:25.394Z,8.03
2023-02-11T12:50:15.495Z,7.53
2023-02-11T12:53:04.596Z,8.67
2023-02-11T12:55:38.182Z,8.03
2023-02-11T12:58:14.897Z,7.53
2023-02-11T13:00:50.118Z,8.93
2023-02-11T13:03:27.414Z,7.60
2023-02-11T13:06:01.316Z,7.13
2023-02-11T13:08:33.633Z,7.63
2023-02-11T13:11:05.368Z,7.00
2023-02-11T13:13:40.610Z,6.53
2023-02-11T13:16:18.591Z,9.20
2023-02-11T13:18:53.705Z,7.20
2023-02-11T13:21:33.731Z,7.90
2023-02-11T13:24:14.726Z,7.90
2023-02-11T13:26:52.177Z,8.63
2023-02-11T13:29:42.439Z,8.63
2023-02-11T13:32:12.852Z,10.30
2023-02-11T13:35:01.702Z,11.43
2023-02-11T13:37:36.680Z,57.00
2023-02-11T13:40:08.902Z,12.30
2023-02-11T13:42:52.551Z,14.60
2023-02-11T13:45:34.991Z,14.00
2023-02-11T13:48:06.148Z,10.47
2023-02-11T13:50:39.729Z,11.43
2023-02-11T13:53:09.560Z,11.40
2023-02-11T13:55:38.233Z,10.13
2023-02-11T13:58:36.565Z,10.57
2023-02-11T14:01:05.808Z,14.70
2023-02-11T14:03:53.443Z,11.37
2023-02-11T14:06:43.128Z,10.90
2023-02-11T14:09:42.049Z,11.93
2023-02-11T14:12:35.541Z,13.17
2023-02-11T14:15:21.231Z,15.70
2023-02-11T14:17:49.522Z,11.30
2023-02-11T14:20:48.347Z,10.90
2023-02-11T14:23:30.013Z,10.00
2023-02-11T14:26:27.386Z,11.03
2023-02-11T14:29:04.113Z,15.77
2023-02-11T14:31:41.112Z,10.57
2023-02-11T14:34:31.491Z,9.53
2023-02-11T14:37:10.071Z,10.57
2023-02-11T14:39:55.963Z,9.40
2023-02-11T14:42:27.724Z,11.73
2023-02-11T14:45:06.529Z,11.20
2023-02-11T14:47:43.327Z,9.13
2023-02-11T14:50:27.522Z,10.27
2023-02-11T14:52:57.995Z,10.70
2023-02-11T14:55:33.418Z,20.90
2023-02-11T14:58:17.143Z,18.23
2023-02-11T15:00:55.653Z,9.70
2023-02-11T15:03:30.673Z,9.60
2023-02-11T15:06:01.389Z,8.70
2023-02-11T15:08:31.910Z,8.53
2023-02-11T15:11:04.227Z,9.53
2023-02-11T15:13:34.342Z,9.43
2023-02-11T15:16:08.470Z,11.63
2023-02-11T15:18:41.062Z,12.70
2023-02-11T15:21:10.426Z,10.27
2023-02-11T15:23:41.120Z,8.67
2023-02-11T15:26:16.068Z,8.60
2023-02-11T15:28:52.744Z,9.43
2023-02-11T15:31:24.479Z,8.53
2023-02-11T15:33:53.812Z,10.10
2023-02-11T15:36:28.679Z,8.60
2023-02-11T15:39:19.637Z,11.30
2023-02-11T15:41:49.457Z,10.20
2023-02-11T15:44:32.866Z,11.60
2023-02-11T15:47:01.221Z,11.23
2023-02-11T15:49:29.754Z,11.20
2023-02-11T15:51:59.032Z,11.60
2023-02-11T15:54:32.138Z,14.60
2023-02-11T15:57:08.871Z,21.10
2023-02-11T15:59:40.273Z,21.77
2023-02-11T16:02:17.623Z,18.43
2023-02-11T16:04:52.367Z,23.40
2023-02-11T16:07:40.704Z,19.00
2023-02-11T16:10:23.400Z,17.10
2023-02-11T16:13:03.663Z,16.20
2023-02-11T16:15:54.012Z,15.70
2023-02-11T16:18:42.457Z,18.93
2023-02-11T16:21:17.393Z,20.60
2023-02-11T16:23:52.250Z,20.53
2023-02-11T16:26:27.990Z,18.00
2023-02-11T16:29:07.189Z,15.53
2023-02-11T16:31:37.508Z,12.23
2023-02-11T16:34:13.734Z,12.27
2023-02-11T16:36:41.963Z,13.90
2023-02-11T16:39:10.548Z,14.57
2023-02-11T16:41:41.861Z,13.03
2023-02-11T16:44:11.676Z,11.73
2023-02-11T16:46:40.350Z,11.53
2023-02-11T16:49:12.221Z,13.50
2023-02-11T16:51:42.732Z,12.53
2023-02-11T16:54:16.199Z,11.83
2023-02-11T16:56:44.906Z,10.83
2023-02-11T16:59:14.692Z,10.73
2023-02-11T17:01:46.241Z,11.27
2023-02-11T17:04:21.507Z,11.43
2023-02-11T17:06:49.907Z,12.67
2023-02-11T17:09:21.475Z,12.80
2023-02-11T17:11:50.345Z,14.57
2023-02-11T17:14:21.089Z,13.63
2023-02-11T17:16:50.067Z,16.17
2023-02-11T17:19:22.003Z,16.20
2023-02-11T17:21:52.531Z,17.70
2023-02-11T17:24:22.036Z,16.27
2023-02-11T17:26:53.282Z,17.87
2023-02-11T17:29:24.661Z,18.63
2023-02-11T17:31:53.835Z,20.53
2023-02-11T17:34:23.886Z,18.40
2023-02-11T17:36:52.393Z,17.63
2023-02-11T17:39:21.268Z,19.90
2023-02-11T17:41:49.649Z,19.57
2023-02-11T17:44:18.356Z,19.30
2023-02-11T17:46:48.156Z,15.60
2023-02-11T17:49:16.615Z,13.93
2023-02-11T17:51:47.934Z,12.47
2023-02-11T17:54:19.202Z,12.70
2023-02-11T17:56:50.977Z,11.80
2023-02-11T17:59:19.521Z,11.97
2023-02-11T18:01:49.954Z,12.70
2023-02-11T18:04:20.394Z,10.83
2023-02-11T18:06:50.433Z,12.13
2023-02-11T18:09:18.789Z,11.13
2023-02-11T18:11:48.511Z,11.03
2023-02-11T18:14:17.724Z,10.47
2023-02-11T18:16:47.578Z,10.40
2023-02-11T18:19:17.367Z,8.87
2023-02-11T18:21:50.476Z,10.60
2023-02-11T18:24:19.323Z,10.60
2023-02-11T18:26:47.597Z,12.30
2023-02-11T18:29:16.001Z,12.60
2023-02-11T18:31:45.350Z,11.47
2023-02-11T18:34:14.308Z,11.67
2023-02-11T18:36:44.217Z,11.40
2023-02-11T18:39:12.424Z,10.57
2023-02-11T18:41:42.340Z,11.30
2023-02-11T18:44:12.047Z,12.60
2023-02-11T18:46:40.193Z,14.87
2023-02-11T18:49:09.990Z,14.60
2023-02-11T18:51:38.187Z,14.93
2023-02-11T18:54:07.752Z,16.55
2023-02-11T18:56:35.898Z,17.83
2023-02-11T18:59:04.536Z,19.40
2023-02-11T19:01:34.921Z,18.40
2023-02-11T19:04:05.001Z,17.13
2023-02-11T19:06:34.768Z,15.70
2023-02-11T19:09:05.826Z,15.05
2023-02-11T19:11:54.494Z,14.57
2023-02-11T19:14:25.097Z,13.97
2023-02-11T19:16:58.957Z,13.82
2023-02-11T19:19:30.103Z,10.68
2023-02-11T19:21:59.324Z,11.68
2023-02-11T19:24:29.119Z,12.32
2023-02-11T19:27:00.830Z,11.40
2023-02-11T19:29:35.431Z,12.43
2023-02-11T19:32:05.952Z,12.20
2023-02-11T19:34:41.004Z,12.40
2023-02-11T19:37:10.970Z,11.70
2023-02-11T19:39:39.631Z,11.30
2023-02-11T19:42:09.178Z,14.53
2023-02-11T19:44:37.497Z,11.83
2023-02-11T19:47:07.073Z,11.20
2023-02-11T19:49:35.544Z,12.37
2023-02-11T19:52:04.051Z,12.63
2023-02-11T19:54:32.533Z,12.20
2023-02-11T19:57:00.794Z,13.53
2023-02-11T19:59:30.739Z,12.97
2023-02-11T20:02:00.724Z,13.07
2023-02-11T20:04:32.268Z,15.90
2023-02-11T20:07:00.634Z,17.15
2023-02-11T20:09:29.158Z,17.73
2023-02-11T20:11:57.648Z,19.30
2023-02-11T20:14:27.945Z,19.15
2023-02-11T20:16:58.288Z,19.67
2023-02-11T20:19:26.876Z,19.47
2023-02-11T20:21:56.495Z,18.92
2023-02-11T20:24:26.029Z,18.58
2023-02-11T20:26:56.181Z,17.60
2023-02-11T20:29:27.806Z,18.08
2023-02-11T20:31:57.635Z,17.70
2023-02-11T20:34:26.218Z,16.08
2023-02-11T20:36:55.116Z,15.82
2023-02-11T20:39:25.018Z,16.45
2023-02-11T20:41:54.596Z,16.00
2023-02-11T20:44:23.607Z,17.35
2023-02-11T20:46:54.328Z,16.60
2023-02-11T20:49:25.791Z,14.50
2023-02-11T20:51:54.522Z,15.20
2023-02-11T20:54:24.052Z,15.20
2023-02-11T20:56:53.841Z,14.25
2023-02-11T20:59:22.743Z,13.55
2023-02-11T21:01:55.495Z,14.73
2023-02-11T21:04:26.924Z,11.13
2023-02-11T21:06:57.612Z,11.88
2023-02-11T21:09:28.932Z,11.50
2023-02-11T21:11:57.692Z,11.82
2023-02-11T21:14:27.323Z,11.38
2023-02-11T21:16:55.802Z,12.80
2023-02-11T21:19:25.828Z,13.20
2023-02-11T21:21:55.312Z,13.10
2023-02-11T21:24:25.734Z,14.90
2023-02-11T21:26:53.953Z,14.77
2023-02-11T21:29:22.175Z,15.13
2023-02-11T21:31:51.521Z,13.40
2023-02-11T21:34:20.231Z,12.48
2023-02-11T21:36:51.295Z,13.05
2023-02-11T21:39:20.423Z,14.30
2023-02-11T21:41:48.621Z,15.75
2023-02-11T21:44:16.805Z,15.50
2023-02-11T21:46:46.132Z,16.75
2023-02-11T21:49:14.468Z,17.30
2023-02-11T21:51:42.848Z,16.10
2023-02-11T21:54:13.703Z,15.50
2023-02-11T21:56:42.063Z,11.80
2023-02-11T21:59:14.015Z,12.50
2023-02-11T22:01:42.570Z,10.00
2023-02-11T22:04:11.384Z,11.25
2023-02-11T22:06:39.921Z,10.38
2023-02-11T22:09:11.011Z,10.65
2023-02-11T22:11:40.814Z,10.20
2023-02-11T22:14:09.396Z,10.23
2023-02-11T22:16:37.785Z,10.73
2023-02-11T22:19:07.563Z,10.60
2023-02-11T22:21:36.078Z,10.90
2023-02-11T22:24:04.848Z,10.20
2023-02-11T22:26:33.329Z,10.32
2023-02-11T22:29:03.437Z,9.90
2023-02-11T22:31:34.807Z,10.57
2023-02-11T22:34:04.781Z,12.77
2023-02-11T22:36:34.978Z,10.50
2023-02-11T22:39:04.049Z,10.47
2023-02-11T22:41:33.721Z,10.80
2023-02-11T22:44:03.234Z,10.40
2023-02-11T22:46:31.793Z,10.23
2023-02-11T22:49:00.093Z,9.30
2023-02-11T22:51:30.044Z,11.33
2023-02-11T22:53:59.836Z,9.30
2023-02-11T22:56:29.131Z,9.57
2023-02-11T22:58:58.814Z,10.80
2023-02-11T23:01:29.217Z,9.13
2023-02-11T23:03:58.109Z,10.50
2023-02-11T23:06:26.413Z,11.67
2023-02-11T23:08:54.699Z,10.57
2023-02-11T23:11:25.333Z,11.37
2023-02-11T23:13:55.124Z,10.43
2023-02-11T23:16:26.781Z,13.00
2023-02-11T23:18:56.666Z,12.27
2023-02-11T23:21:27.205Z,11.40
2023-02-11T23:23:57.101Z,10.60
2023-02-11T23:26:26.276Z,10.60
2023-02-11T23:28:54.695Z,10.23
2023-02-11T23:31:25.567Z,10.10
2023-02-11T23:33:54.219Z,9.13
2023-02-11T23:36:24.691Z,9.40
2023-02-11T23:38:53.427Z,8.97
2023-02-11T23:41:22.673Z,9.17
2023-02-11T23:43:52.089Z,9.80
2023-02-11T23:46:21.931Z,8.40
2023-02-11T23:48:50.491Z,9.10
2023-02-11T23:51:19.674Z,7.50
2023-02-11T23:53:50.484Z,8.67
2023-02-11T23:56:21.502Z,7.73
2023-02-11T23:58:50.072Z,9.07
